Time;durP1;ratioP1;P1;durP2;ratioP2;P2;SDS_P1;SDS_P2;PMS_P1;PMS_P2;Temp;Humidity;BMP_temperature;BMP_pressure;BME280_temperature;BME280_humidity;BME280_pressure;Samples;Min_cycle;Max_cycle;Signal;HPM_P1;HPM_P2
2021/12/10 00:01:32;;;;;;;45.08;23.30;;;;;;;;;;5067069;28;20033;-72
2021/12/10 00:03:59;;;;;;;52.78;22.95;;;;;;;;;;5071605;28;20032;-71
2021/12/10 00:06:27;;;;;;;44.33;22.48;;;;;;;;;;5069055;28;20032;-71
2021/12/10 00:08:55;;;;;;;43.90;21.77;;;;;;;;;;5072252;28;20044;-71
2021/12/10 00:11:23;;;;;;;48.88;22.90;;;;;;;;;;5072415;28;20106;-72
2021/12/10 00:13:50;;;;;;;43.80;22.33;;;;;;;;;;5072297;28;20620;-71
2021/12/10 00:16:17;;;;;;;41.03;20.80;;;;;;;;;;5071387;28;20119;-71
2021/12/10 00:18:50;;;;;;;47.15;21.73;;;;;;;;;;5072110;28;20053;-71
2021/12/10 00:21:16;;;;;;;53.30;22.00;;;;;;;;;;5071840;28;20056;-72
2021/12/10 00:23:46;;;;;;;43.50;21.48;;;;;;;;;;5072675;28;20524;-71
2021/12/10 00:26:12;;;;;;;44.13;22.58;;;;;;;;;;5072052;28;20044;-71
2021/12/10 00:28:40;;;;;;;47.20;21.30;;;;;;;;;;5071435;28;20044;-71
2021/12/10 00:31:16;;;;;;;42.78;20.85;;;;;;;;;;5071741;28;20037;-72
2021/12/10 00:33:47;;;;;;;41.78;19.65;;;;;;;;;;5071507;28;20037;-71
2021/12/10 00:36:13;;;;;;;38.55;20.55;;;;;;;;;;5070843;28;20036;-71
2021/12/10 00:38:39;;;;;;;39.47;19.13;;;;;;;;;;5072343;28;20045;-71
2021/12/10 00:41:06;;;;;;;42.88;19.23;;;;;;;;;;5071731;28;20041;-72
2021/12/10 00:43:32;;;;;;;39.33;19.27;;;;;;;;;;5071842;28;20051;-71
2021/12/10 00:45:58;;;;;;;33.63;18.25;;;;;;;;;;5071252;28;20043;-71
2021/12/10 00:48:24;;;;;;;40.97;18.75;;;;;;;;;;5071299;28;20037;-71
2021/12/10 00:50:52;;;;;;;37.38;19.33;;;;;;;;;;5070865;28;20052;-71
2021/12/10 00:53:18;;;;;;;38.50;19.80;;;;;;;;;;5071735;28;20052;-71
2021/12/10 00:55:45;;;;;;;36.05;19.67;;;;;;;;;;5071657;28;20040;-71
2021/12/10 00:58:12;;;;;;;46.45;20.40;;;;;;;;;;5071393;28;20047;-71
2021/12/10 01:00:58;;;;;;;35.70;19.00;;;;;;;;;;5071612;28;20045;-72
2021/12/10 01:03:27;;;;;;;38.67;18.77;;;;;;;;;;5071512;28;20082;-72
2021/12/10 01:05:56;;;;;;;40.72;18.85;;;;;;;;;;5068538;28;20032;-72
2021/12/10 01:08:22;;;;;;;37.40;19.08;;;;;;;;;;5071526;28;20048;-71
2021/12/10 01:10:59;;;;;;;34.03;17.42;;;;;;;;;;5071460;28;20036;-72
2021/12/10 01:13:30;;;;;;;29.42;16.08;;;;;;;;;;5071400;28;20041;-71
2021/12/10 01:23:41;;;;;;;31.40;17.08;;;;;;;;;;5070997;28;20041;-71
2021/12/10 01:24:37;;;;;;;33.28;16.02;;;;;;;;;;5071184;28;20456;-71
2021/12/10 01:27:11;;;;;;;29.38;15.65;;;;;;;;;;5071090;28;20072;-71
2021/12/10 01:29:39;;;;;;;35.42;15.70;;;;;;;;;;5070672;28;20498;-71
2021/12/10 01:32:07;;;;;;;28.70;15.23;;;;;;;;;;5071074;28;20036;-72
2021/12/10 01:34:33;;;;;;;28.90;15.15;;;;;;;;;;5070939;28;20044;-71
2021/12/10 01:37:01;;;;;;;31.98;15.40;;;;;;;;;;5071029;28;20494;-71
2021/12/10 01:39:29;;;;;;;31.75;15.68;;;;;;;;;;5071545;28;20391;-71
2021/12/10 01:42:42;;;;;;;33.55;15.57;;;;;;;;;;5069139;28;20123;-71
2021/12/10 01:44:47;;;;;;;29.33;15.60;;;;;;;;;;5060364;28;20102;-71
2021/12/10 01:47:14;;;;;;;28.60;14.82;;;;;;;;;;5071149;28;20411;-72
2021/12/10 01:49:42;;;;;;;28.27;13.50;;;;;;;;;;5071464;28;20051;-72
2021/12/10 01:52:09;;;;;;;37.10;14.57;;;;;;;;;;5069519;28;20517;-71
2021/12/10 01:54:40;;;;;;;30.35;14.45;;;;;;;;;;5070536;28;20047;-71
2021/12/10 01:57:07;;;;;;;31.52;15.02;;;;;;;;;;5071097;28;20040;-71
2021/12/10 01:59:34;;;;;;;28.67;14.68;;;;;;;;;;5072125;28;20040;-71
2021/12/10 02:02:03;;;;;;;29.67;14.82;;;;;;;;;;5074646;28;20394;-70
2021/12/10 02:04:32;;;;;;;28.83;14.27;;;;;;;;;;5071789;28;20078;-72
2021/12/10 02:07:00;;;;;;;29.10;14.73;;;;;;;;;;5070731;28;20123;-71
2021/12/10 02:09:26;;;;;;;27.73;14.45;;;;;;;;;;5069137;28;20455;-71
2021/12/10 02:11:52;;;;;;;28.65;14.20;;;;;;;;;;5074312;28;20094;-71
2021/12/10 02:14:19;;;;;;;30.67;15.80;;;;;;;;;;5074775;28;20494;-71
2021/12/10 02:16:45;;;;;;;30.10;14.45;;;;;;;;;;5073767;28;20119;-71
2021/12/10 02:19:13;;;;;;;30.95;15.00;;;;;;;;;;5074861;28;20072;-71
2021/12/10 02:21:40;;;;;;;32.08;14.70;;;;;;;;;;5074001;28;20109;-71
2021/12/10 02:24:06;;;;;;;30.55;14.38;;;;;;;;;;5074702;28;20048;-71
2021/12/10 02:26:34;;;;;;;25.20;14.40;;;;;;;;;;5073377;28;20426;-71
2021/12/10 02:29:01;;;;;;;27.48;14.73;;;;;;;;;;5074848;28;20036;-71
2021/12/10 02:31:27;;;;;;;27.27;14.13;;;;;;;;;;5071521;28;20086;-72
2021/12/10 02:33:55;;;;;;;27.13;13.43;;;;;;;;;;5074631;28;20044;-71
2021/12/10 02:36:21;;;;;;;29.55;13.80;;;;;;;;;;5073544;28;20049;-72
2021/12/10 02:38:49;;;;;;;26.67;13.45;;;;;;;;;;5074556;28;20128;-71
2021/12/10 02:41:16;;;;;;;26.08;12.45;;;;;;;;;;5073181;28;20044;-71
2021/12/10 02:43:42;;;;;;;33.20;14.45;;;;;;;;;;5074306;28;20047;-71
2021/12/10 02:46:08;;;;;;;25.75;13.50;;;;;;;;;;5073825;28;20043;-71
2021/12/10 02:48:34;;;;;;;26.30;13.40;;;;;;;;;;5073845;28;20085;-71
2021/12/10 02:51:01;;;;;;;28.48;14.30;;;;;;;;;;5073418;28;20044;-71
2021/12/10 02:53:30;;;;;;;28.33;14.27;;;;;;;;;;5071915;28;20039;-71
2021/12/10 02:55:57;;;;;;;32.28;14.90;;;;;;;;;;5072492;28;20456;-71
2021/12/10 02:58:24;;;;;;;32.45;14.63;;;;;;;;;;5073962;28;20094;-71
2021/12/10 03:00:50;;;;;;;29.23;14.00;;;;;;;;;;5072229;28;20114;-71
2021/12/10 03:03:16;;;;;;;27.70;13.48;;;;;;;;;;5072469;28;20056;-71
2021/12/10 03:05:42;;;;;;;31.15;14.82;;;;;;;;;;5071535;28;20549;-71
2021/12/10 03:08:09;;;;;;;31.38;15.60;;;;;;;;;;5072016;28;20452;-71
2021/12/10 03:10:35;;;;;;;35.25;16.10;;;;;;;;;;5074003;28;20131;-71
2021/12/10 03:13:01;;;;;;;31.63;16.55;;;;;;;;;;5073162;28;20397;-71
2021/12/10 03:15:29;;;;;;;30.10;15.88;;;;;;;;;;5073900;28;20039;-71
2021/12/10 03:17:56;;;;;;;29.52;14.90;;;;;;;;;;5071569;28;20086;-71
2021/12/10 03:20:24;;;;;;;39.42;17.15;;;;;;;;;;5073531;28;20040;-71
2021/12/10 03:22:51;;;;;;;29.10;15.25;;;;;;;;;;5072804;28;20366;-71
2021/12/10 03:25:18;;;;;;;34.53;17.42;;;;;;;;;;5070626;28;20033;-71
2021/12/10 03:27:44;;;;;;;34.30;17.23;;;;;;;;;;5072120;28;20036;-71
2021/12/10 03:30:12;;;;;;;29.05;16.52;;;;;;;;;;5073031;28;20090;-71
2021/12/10 03:32:39;;;;;;;32.38;17.38;;;;;;;;;;5072668;28;20040;-71
2021/12/10 03:35:09;;;;;;;29.73;16.23;;;;;;;;;;5071499;28;20040;-71
2021/12/10 03:37:35;;;;;;;36.58;17.48;;;;;;;;;;5060620;28;20563;-70
2021/12/10 03:40:01;;;;;;;29.63;17.00;;;;;;;;;;5069778;28;20040;-71
2021/12/10 03:42:27;;;;;;;33.90;16.58;;;;;;;;;;5070629;28;20047;-71
2021/12/10 03:44:53;;;;;;;31.95;16.00;;;;;;;;;;5072677;28;20036;-71
2021/12/10 03:47:19;;;;;;;32.45;16.42;;;;;;;;;;5072472;28;20047;-71
2021/12/10 03:49:45;;;;;;;31.42;16.30;;;;;;;;;;5054958;28;20040;-71
2021/12/10 03:52:11;;;;;;;32.90;15.43;;;;;;;;;;5070810;28;20036;-71
2021/12/10 03:54:38;;;;;;;31.00;16.15;;;;;;;;;;5071688;28;20458;-71
2021/12/10 03:57:05;;;;;;;29.02;15.88;;;;;;;;;;5072380;28;20120;-71
2021/12/10 03:59:31;;;;;;;32.35;15.90;;;;;;;;;;5067841;28;20125;-71
2021/12/10 04:01:58;;;;;;;29.00;15.18;;;;;;;;;;5072106;28;20032;-71
2021/12/10 04:04:28;;;;;;;32.60;16.70;;;;;;;;;;5072939;28;20039;-71
2021/12/10 04:06:55;;;;;;;33.78;15.63;;;;;;;;;;5067900;28;20410;-71
2021/12/10 04:09:21;;;;;;;30.52;17.50;;;;;;;;;;5066647;28;20140;-71
2021/12/10 04:11:48;;;;;;;28.85;15.88;;;;;;;;;;5070885;28;20045;-71
2021/12/10 04:14:14;;;;;;;30.27;16.08;;;;;;;;;;5072560;28;20045;-71
2021/12/10 04:16:40;;;;;;;32.80;16.25;;;;;;;;;;5072425;28;20040;-71
2021/12/10 04:19:09;;;;;;;27.30;15.40;;;;;;;;;;5070147;28;20033;-71
2021/12/10 04:21:40;;;;;;;27.35;15.75;;;;;;;;;;5070206;28;20044;-70
2021/12/10 04:24:08;;;;;;;31.48;16.17;;;;;;;;;;5052571;28;20053;-71
2021/12/10 04:26:34;;;;;;;26.23;15.63;;;;;;;;;;5072311;28;20040;-71
2021/12/10 04:29:00;;;;;;;28.58;15.65;;;;;;;;;;5067958;28;20048;-71
2021/12/10 04:31:26;;;;;;;26.00;15.90;;;;;;;;;;5070349;28;20090;-69
2021/12/10 04:33:52;;;;;;;27.88;15.45;;;;;;;;;;5067219;28;20041;-71
2021/12/10 04:36:18;;;;;;;27.83;16.50;;;;;;;;;;5071734;28;20453;-71
2021/12/10 04:38:45;;;;;;;26.75;15.90;;;;;;;;;;5071462;28;20037;-71
2021/12/10 04:41:11;;;;;;;29.90;17.63;;;;;;;;;;5070628;28;20398;-71
2021/12/10 04:43:39;;;;;;;34.80;17.20;;;;;;;;;;5071568;28;20045;-71
2021/12/10 04:46:05;;;;;;;28.95;16.38;;;;;;;;;;5072207;28;20093;-71
2021/12/10 04:48:42;;;;;;;26.67;16.05;;;;;;;;;;5071778;28;20511;-71
2021/12/10 04:51:08;;;;;;;26.70;16.88;;;;;;;;;;5071136;28;20524;-71
2021/12/10 04:53:34;;;;;;;28.95;16.67;;;;;;;;;;5071252;28;20032;-71
2021/12/10 04:56:00;;;;;;;28.10;16.48;;;;;;;;;;5071567;28;20390;-71
2021/12/10 04:58:26;;;;;;;28.27;16.70;;;;;;;;;;5071569;28;20127;-71
2021/12/10 05:00:52;;;;;;;29.45;16.45;;;;;;;;;;5068252;28;20316;-71
2021/12/10 05:03:18;;;;;;;27.45;16.15;;;;;;;;;;5073056;28;20040;-71
2021/12/10 05:05:45;;;;;;;30.30;15.95;;;;;;;;;;5069655;28;20498;-71
2021/12/10 05:08:11;;;;;;;30.27;16.60;;;;;;;;;;5069421;28;20386;-71
2021/12/10 05:10:37;;;;;;;26.48;14.70;;;;;;;;;;5070459;28;20047;-71
2021/12/10 05:13:04;;;;;;;25.67;14.55;;;;;;;;;;5071261;28;20032;-71
2021/12/10 05:15:32;;;;;;;23.50;14.30;;;;;;;;;;5071450;28;20139;-71
2021/12/10 05:17:58;;;;;;;23.73;14.23;;;;;;;;;;5070970;28;20498;-70
2021/12/10 05:20:35;;;;;;;28.42;14.18;;;;;;;;;;5097330;22;20066;-61
2021/12/10 05:23:01;;;;;;;25.23;15.25;;;;;;;;;;5072660;28;20072;-61
2021/12/10 05:25:29;;;;;;;22.95;13.73;;;;;;;;;;5063909;28;20485;-62
2021/12/10 05:27:55;;;;;;;24.17;13.20;;;;;;;;;;5088170;28;20033;-61
2021/12/10 05:30:22;;;;;;;24.55;13.50;;;;;;;;;;5079563;28;20537;-61
2021/12/10 05:32:49;;;;;;;23.20;13.00;;;;;;;;;;5072088;28;20094;-62
2021/12/10 05:35:15;;;;;;;23.55;14.07;;;;;;;;;;5089224;28;20055;-61
2021/12/10 05:37:41;;;;;;;21.60;12.93;;;;;;;;;;5065011;28;20055;-61
2021/12/10 05:40:10;;;;;;;20.17;12.43;;;;;;;;;;5069597;28;20086;-61
2021/12/10 05:42:36;;;;;;;23.35;11.95;;;;;;;;;;5071391;28;20033;-61
2021/12/10 05:45:03;;;;;;;19.35;12.38;;;;;;;;;;5070782;28;20045;-61
2021/12/10 05:47:29;;;;;;;20.85;12.38;;;;;;;;;;5051193;28;20040;-61
2021/12/10 05:49:55;;;;;;;19.58;12.30;;;;;;;;;;5074697;28;20047;-62
2021/12/10 05:52:21;;;;;;;20.77;12.35;;;;;;;;;;5067839;28;20052;-61
2021/12/10 05:54:47;;;;;;;20.45;12.48;;;;;;;;;;5069947;28;20037;-62
2021/12/10 05:57:13;;;;;;;19.70;11.77;;;;;;;;;;5072256;28;20052;-62
2021/12/10 05:59:39;;;;;;;19.48;12.55;;;;;;;;;;5070746;28;20413;-62
2021/12/10 06:02:05;;;;;;;20.40;11.30;;;;;;;;;;5044748;28;20047;-61
2021/12/10 06:04:32;;;;;;;21.60;12.50;;;;;;;;;;5066610;28;20414;-62
2021/12/10 06:06:58;;;;;;;21.15;11.43;;;;;;;;;;5062483;28;20032;-62
2021/12/10 06:09:25;;;;;;;19.80;12.30;;;;;;;;;;5065368;28;20091;-61
2021/12/10 06:11:51;;;;;;;20.10;11.52;;;;;;;;;;5068513;28;20051;-62
2021/12/10 06:14:17;;;;;;;18.75;11.60;;;;;;;;;;5052247;28;20407;-61
2021/12/10 06:16:43;;;;;;;24.20;13.25;;;;;;;;;;5057201;28;20505;-62
2021/12/10 06:19:09;;;;;;;20.85;11.63;;;;;;;;;;5066512;28;20047;-62
2021/12/10 06:21:36;;;;;;;18.20;11.25;;;;;;;;;;5052842;28;20470;-62
2021/12/10 06:24:02;;;;;;;20.50;11.98;;;;;;;;;;5070737;28;20086;-61
2021/12/10 06:26:28;;;;;;;19.33;11.98;;;;;;;;;;5070571;28;20045;-62
2021/12/10 06:28:54;;;;;;;21.02;12.05;;;;;;;;;;5070448;28;20040;-62
2021/12/10 06:31:22;;;;;;;19.30;11.77;;;;;;;;;;5069938;28;20457;-62
2021/12/10 06:33:48;;;;;;;20.88;11.68;;;;;;;;;;5065195;28;20490;-61
2021/12/10 06:36:15;;;;;;;20.80;11.38;;;;;;;;;;5070743;28;20045;-62
2021/12/10 06:38:41;;;;;;;15.38;10.52;;;;;;;;;;5069997;28;20045;-62
2021/12/10 06:41:07;;;;;;;19.90;11.95;;;;;;;;;;5070638;28;20037;-62
2021/12/10 06:43:34;;;;;;;20.73;10.95;;;;;;;;;;5053123;28;20098;-62
2021/12/10 06:46:01;;;;;;;19.98;11.05;;;;;;;;;;5051952;28;20107;-62
2021/12/10 06:48:28;;;;;;;17.13;10.40;;;;;;;;;;5048133;28;20044;-62
2021/12/10 06:50:55;;;;;;;20.88;10.98;;;;;;;;;;5071111;28;20044;-61
2021/12/10 06:53:23;;;;;;;18.33;11.48;;;;;;;;;;5069626;28;20045;-61
2021/12/10 06:55:49;;;;;;;18.35;10.93;;;;;;;;;;5054367;28;20474;-62
2021/12/10 06:58:16;;;;;;;16.23;10.70;;;;;;;;;;5071766;28;20044;-62
2021/12/10 07:00:46;;;;;;;17.42;10.68;;;;;;;;;;5063096;28;20055;-62
2021/12/10 07:03:13;;;;;;;20.92;11.68;;;;;;;;;;5070274;28;20036;-61
2021/12/10 07:05:40;;;;;;;21.42;10.65;;;;;;;;;;5067308;28;20044;-61
2021/12/10 07:08:06;;;;;;;16.52;10.45;;;;;;;;;;5070966;28;20037;-62
2021/12/10 07:10:32;;;;;;;17.75;11.02;;;;;;;;;;5072123;28;20234;-62
2021/12/10 07:12:59;;;;;;;21.20;12.02;;;;;;;;;;5068467;28;20568;-62
2021/12/10 07:15:25;;;;;;;53.00;13.68;;;;;;;;;;5072364;28;20055;-62
2021/12/10 07:17:52;;;;;;;15.93;9.93;;;;;;;;;;5071546;28;20037;-61
2021/12/10 07:20:20;;;;;;;27.13;12.88;;;;;;;;;;5065150;28;20037;-61
2021/12/10 07:22:46;;;;;;;18.58;10.65;;;;;;;;;;5073161;28;20032;-62
2021/12/10 07:25:12;;;;;;;18.77;10.15;;;;;;;;;;5073380;28;20560;-62
2021/12/10 07:27:38;;;;;;;15.02;9.10;;;;;;;;;;5071807;28;20032;-62
2021/12/10 07:30:04;;;;;;;17.05;10.02;;;;;;;;;;5072711;28;20032;-61
2021/12/10 07:32:30;;;;;;;27.75;11.02;;;;;;;;;;5052463;28;20072;-62
2021/12/10 07:34:56;;;;;;;17.02;9.60;;;;;;;;;;5064180;28;20068;-62
2021/12/10 07:37:24;;;;;;;17.75;9.30;;;;;;;;;;5072000;28;20071;-61
2021/12/10 07:39:50;;;;;;;19.15;9.52;;;;;;;;;;5053680;28;20405;-62
2021/12/10 07:42:16;;;;;;;16.40;9.48;;;;;;;;;;5072423;28;20075;-61
2021/12/10 07:44:42;;;;;;;19.70;9.93;;;;;;;;;;5069609;28;20044;-61
2021/12/10 07:47:10;;;;;;;15.25;8.55;;;;;;;;;;5063013;28;20074;-62
2021/12/10 07:49:37;;;;;;;15.10;9.05;;;;;;;;;;5055460;28;20084;-61
2021/12/10 07:52:05;;;;;;;15.10;8.75;;;;;;;;;;5068572;28;20036;-62
2021/12/10 07:54:31;;;;;;;16.52;9.65;;;;;;;;;;5069442;28;20061;-62
2021/12/10 07:56:57;;;;;;;16.60;9.23;;;;;;;;;;5064575;28;20044;-62
2021/12/10 07:59:23;;;;;;;13.50;8.82;;;;;;;;;;5067229;28;20066;-62
2021/12/10 08:01:49;;;;;;;19.50;8.95;;;;;;;;;;5072675;28;20191;-62
2021/12/10 08:04:15;;;;;;;14.38;8.55;;;;;;;;;;5070901;28;20493;-62
2021/12/10 08:06:42;;;;;;;15.63;8.63;;;;;;;;;;5066893;28;20066;-61
2021/12/10 08:09:19;;;;;;;16.33;8.88;;;;;;;;;;5073115;28;20154;-61
2021/12/10 08:11:48;;;;;;;14.43;8.50;;;;;;;;;;5055188;28;20470;-61
2021/12/10 08:14:14;;;;;;;14.15;8.25;;;;;;;;;;5054361;28;20044;-61
2021/12/10 08:16:40;;;;;;;13.15;8.57;;;;;;;;;;5065782;28;20068;-62
2021/12/10 08:19:07;;;;;;;14.02;8.00;;;;;;;;;;5048691;28;20036;-62
2021/12/10 08:21:33;;;;;;;13.80;8.25;;;;;;;;;;5068832;28;20045;-62
2021/12/10 08:24:00;;;;;;;16.95;8.25;;;;;;;;;;5065760;28;20139;-62
2021/12/10 08:26:26;;;;;;;14.38;8.15;;;;;;;;;;5068057;28;20033;-61
2021/12/10 08:28:53;;;;;;;12.98;8.20;;;;;;;;;;5052937;28;20044;-61
2021/12/10 08:31:19;;;;;;;16.23;8.35;;;;;;;;;;5061889;28;20040;-62
2021/12/10 08:33:48;;;;;;;12.60;8.25;;;;;;;;;;5066372;28;20102;-62
2021/12/10 08:36:15;;;;;;;15.98;7.97;;;;;;;;;;5061496;28;20044;-62
2021/12/10 08:38:42;;;;;;;15.55;8.40;;;;;;;;;;5066329;28;20131;-62
2021/12/10 08:41:09;;;;;;;13.18;8.48;;;;;;;;;;5050049;28;20468;-62
2021/12/10 08:43:36;;;;;;;12.63;7.75;;;;;;;;;;5071214;28;20036;-63
2021/12/10 08:46:02;;;;;;;14.23;7.90;;;;;;;;;;5071204;28;20039;-63
2021/12/10 08:48:30;;;;;;;15.77;9.57;;;;;;;;;;5071040;28;20071;-62
2021/12/10 08:50:57;;;;;;;15.35;8.25;;;;;;;;;;5069371;28;20036;-62
2021/12/10 08:53:23;;;;;;;12.13;7.72;;;;;;;;;;5070528;28;20033;-62
2021/12/10 08:55:50;;;;;;;14.80;7.90;;;;;;;;;;5071784;28;20040;-62
2021/12/10 08:58:17;;;;;;;13.38;7.65;;;;;;;;;;5054107;28;20072;-61
2021/12/10 09:00:46;;;;;;;13.52;8.10;;;;;;;;;;5070239;28;20469;-62
2021/12/10 09:03:12;;;;;;;15.65;7.90;;;;;;;;;;5071471;28;20044;-62
2021/12/10 09:05:38;;;;;;;10.70;7.45;;;;;;;;;;5071944;28;20111;-61
2021/12/10 09:08:04;;;;;;;13.90;8.07;;;;;;;;;;5070281;28;20517;-61
2021/12/10 09:10:34;;;;;;;11.60;7.80;;;;;;;;;;5067826;28;20041;-61
2021/12/10 09:13:00;;;;;;;14.02;7.18;;;;;;;;;;5069415;28;20070;-61
2021/12/10 09:15:28;;;;;;;12.43;7.38;;;;;;;;;;5060660;28;20502;-61
2021/12/10 09:17:58;;;;;;;16.58;8.07;;;;;;;;;;5072638;28;20044;-61
2021/12/10 09:20:28;;;;;;;12.75;7.32;;;;;;;;;;5063648;28;20036;-62
2021/12/10 09:22:54;;;;;;;16.13;7.57;;;;;;;;;;5059218;28;20037;-62
2021/12/10 09:25:20;;;;;;;13.43;8.02;;;;;;;;;;5065036;28;20486;-61
2021/12/10 09:27:46;;;;;;;14.57;7.57;;;;;;;;;;5069791;28;20036;-61
2021/12/10 09:30:13;;;;;;;13.88;7.68;;;;;;;;;;5062882;28;20052;-61
2021/12/10 09:32:39;;;;;;;16.40;7.75;;;;;;;;;;5070271;28;20041;-62
2021/12/10 09:35:07;;;;;;;13.50;7.40;;;;;;;;;;5066870;28;20044;-61
2021/12/10 09:37:34;;;;;;;10.80;6.93;;;;;;;;;;5065229;28;20041;-61
2021/12/10 09:40:00;;;;;;;12.90;7.22;;;;;;;;;;5066135;28;20455;-61
2021/12/10 09:42:26;;;;;;;12.48;7.18;;;;;;;;;;5065607;28;20049;-61
2021/12/10 09:44:53;;;;;;;12.90;7.13;;;;;;;;;;5073453;28;20115;-62
2021/12/10 09:47:20;;;;;;;11.70;7.43;;;;;;;;;;5061803;28;20043;-62
2021/12/10 09:49:49;;;;;;;13.00;6.82;;;;;;;;;;5064401;28;20067;-62
2021/12/10 09:52:16;;;;;;;12.07;6.45;;;;;;;;;;5070140;28;20093;-62
2021/12/10 09:54:43;;;;;;;11.52;7.18;;;;;;;;;;5064919;28;20045;-63
2021/12/10 09:57:21;;;;;;;10.90;5.97;;;;;;;;;;5071071;28;20041;-62
2021/12/10 09:59:50;;;;;;;14.25;7.00;;;;;;;;;;5051076;28;20044;-62
2021/12/10 10:02:16;;;;;;;10.48;5.85;;;;;;;;;;5052543;28;20138;-63
2021/12/10 10:04:48;;;;;;;9.98;6.55;;;;;;;;;;5071374;28;20200;-62
2021/12/10 10:07:17;;;;;;;10.82;6.10;;;;;;;;;;5068748;28;20516;-62
2021/12/10 10:09:46;;;;;;;10.30;6.22;;;;;;;;;;5062682;28;20052;-63
2021/12/10 10:12:18;;;;;;;12.13;6.50;;;;;;;;;;5070095;28;20437;-63
2021/12/10 10:14:44;;;;;;;9.05;5.88;;;;;;;;;;5064829;28;20411;-62
2021/12/10 10:17:11;;;;;;;11.55;6.57;;;;;;;;;;5069693;28;20123;-63
2021/12/10 10:19:38;;;;;;;12.10;6.53;;;;;;;;;;5061056;28;20418;-61
2021/12/10 10:22:05;;;;;;;10.48;5.88;;;;;;;;;;5064555;28;20039;-62
2021/12/10 10:24:32;;;;;;;8.32;5.95;;;;;;;;;;5057359;28;20395;-63
2021/12/10 10:27:07;;;;;;;9.70;6.10;;;;;;;;;;5073729;28;20398;-63
2021/12/10 10:29:36;;;;;;;10.40;6.35;;;;;;;;;;5073007;28;20045;-63
2021/12/10 10:32:09;;;;;;;10.13;6.38;;;;;;;;;;5073641;28;20067;-63
2021/12/10 10:34:36;;;;;;;8.13;5.90;;;;;;;;;;5074882;28;20505;-63
2021/12/10 10:37:03;;;;;;;9.35;6.38;;;;;;;;;;5074227;28;20036;-63
2021/12/10 10:39:33;;;;;;;9.68;5.50;;;;;;;;;;5066174;28;20044;-63
2021/12/10 10:41:59;;;;;;;8.40;5.15;;;;;;;;;;5074566;28;20573;-63
2021/12/10 10:44:25;;;;;;;11.05;6.15;;;;;;;;;;5052579;28;20517;-63
2021/12/10 10:46:56;;;;;;;12.57;5.60;;;;;;;;;;5063307;28;20043;-63
2021/12/10 10:49:33;;;;;;;11.27;5.45;;;;;;;;;;5076020;28;20465;-64
2021/12/10 10:52:11;;;;;;;11.55;6.03;;;;;;;;;;5075921;28;20397;-63
2021/12/10 10:54:37;;;;;;;14.13;5.60;;;;;;;;;;5062275;28;20032;-63
2021/12/10 10:57:10;;;;;;;8.73;5.10;;;;;;;;;;5051578;28;20080;-63
2021/12/10 10:59:36;;;;;;;10.20;5.13;;;;;;;;;;5064275;28;20049;-63
2021/12/10 11:02:08;;;;;;;10.38;5.50;;;;;;;;;;5071434;28;20073;-63
2021/12/10 11:04:34;;;;;;;8.93;4.80;;;;;;;;;;5055164;28;20055;-63
2021/12/10 11:07:06;;;;;;;9.40;5.10;;;;;;;;;;5071886;28;20045;-63
2021/12/10 11:09:33;;;;;;;7.97;4.90;;;;;;;;;;5074194;28;20051;-63
2021/12/10 11:12:07;;;;;;;9.00;5.25;;;;;;;;;;5071766;28;20055;-63
2021/12/10 11:14:36;;;;;;;10.27;5.05;;;;;;;;;;5070812;28;20502;-63
2021/12/10 11:17:05;;;;;;;8.60;4.90;;;;;;;;;;5061801;28;20068;-64
2021/12/10 11:19:32;;;;;;;9.05;5.07;;;;;;;;;;5089794;22;20036;-65
2021/12/10 11:22:03;;;;;;;8.20;4.72;;;;;;;;;;5087703;28;20044;-65
2021/12/10 11:24:38;;;;;;;12.50;5.85;;;;;;;;;;5095410;28;20142;-66
2021/12/10 11:27:04;;;;;;;8.38;4.97;;;;;;;;;;5097879;28;20036;-65
2021/12/10 11:29:47;;;;;;;9.93;5.03;;;;;;;;;;5107169;28;20086;-65
2021/12/10 11:32:32;;;;;;;10.20;4.45;;;;;;;;;;5111564;28;20404;-65
2021/12/10 11:35:08;;;;;;;7.38;4.28;;;;;;;;;;5102022;28;20185;-65
2021/12/10 11:37:40;;;;;;;8.52;4.45;;;;;;;;;;5106574;27;20062;-65
2021/12/10 11:40:23;;;;;;;8.35;5.05;;;;;;;;;;5099293;28;20050;-65
2021/12/10 11:42:56;;;;;;;6.22;4.00;;;;;;;;;;5082886;28;20036;-65
2021/12/10 11:45:31;;;;;;;9.20;4.22;;;;;;;;;;5110710;28;20069;-65
2021/12/10 11:48:06;;;;;;;8.35;4.18;;;;;;;;;;5113173;28;20039;-65
2021/12/10 11:50:33;;;;;;;7.75;3.97;;;;;;;;;;5109684;28;20055;-65
2021/12/10 11:53:01;;;;;;;9.35;4.15;;;;;;;;;;5091760;28;20055;-65
2021/12/10 11:55:27;;;;;;;7.80;4.20;;;;;;;;;;5099252;28;20048;-65
2021/12/10 11:57:53;;;;;;;7.03;3.85;;;;;;;;;;5090538;28;20412;-65
2021/12/10 12:00:21;;;;;;;5.95;4.00;;;;;;;;;;5113324;28;20589;-65
2021/12/10 12:02:49;;;;;;;7.45;4.10;;;;;;;;;;5111335;28;20497;-65
2021/12/10 12:05:17;;;;;;;11.80;4.18;;;;;;;;;;5096560;27;20210;-64
2021/12/10 12:07:43;;;;;;;9.93;3.88;;;;;;;;;;5109003;28;20075;-65
2021/12/10 12:10:14;;;;;;;8.23;4.32;;;;;;;;;;5113102;28;20075;-65
2021/12/10 12:12:45;;;;;;;9.60;3.60;;;;;;;;;;5112067;28;20036;-66
2021/12/10 12:15:17;;;;;;;6.85;4.05;;;;;;;;;;5094095;28;20047;-65
2021/12/10 12:17:52;;;;;;;6.43;3.70;;;;;;;;;;5115274;27;20046;-65
2021/12/10 12:20:30;;;;;;;8.43;4.00;;;;;;;;;;5103575;27;20054;-65
2021/12/10 12:25:51;;;;;;;9.70;3.85;;;;;;;;;;5102993;28;20048;-65
2021/12/10 12:28:18;;;;;;;9.43;3.55;;;;;;;;;;5085601;28;20492;-65
2021/12/10 12:30:55;;;;;;;7.65;3.28;;;;;;;;;;5085655;28;20401;-65
2021/12/10 12:33:24;;;;;;;8.93;3.63;;;;;;;;;;5101972;28;20044;-65
2021/12/10 12:35:51;;;;;;;9.00;3.47;;;;;;;;;;5103480;28;20043;-65
2021/12/10 12:38:21;;;;;;;8.25;4.00;;;;;;;;;;5090374;28;20040;-65
2021/12/10 12:40:58;;;;;;;6.10;3.22;;;;;;;;;;5107444;28;21497;-65
2021/12/10 12:43:24;;;;;;;9.10;3.60;;;;;;;;;;5083960;28;20036;-65
2021/12/10 12:45:50;;;;;;;9.07;3.60;;;;;;;;;;5110990;28;20038;-65
2021/12/10 12:48:16;;;;;;;7.20;3.28;;;;;;;;;;5090411;28;20051;-65
2021/12/10 12:50:43;;;;;;;7.32;3.35;;;;;;;;;;5094808;28;20233;-65
2021/12/10 12:53:20;;;;;;;7.88;3.35;;;;;;;;;;5106381;28;20072;-65
2021/12/10 12:56:11;;;;;;;8.45;3.60;;;;;;;;;;5105375;28;20035;-65
2021/12/10 12:58:49;;;;;;;8.85;3.22;;;;;;;;;;5085537;28;20047;-65
2021/12/10 13:01:18;;;;;;;7.65;3.30;;;;;;;;;;5092576;28;20036;-65
2021/12/10 13:06:59;;;;;;;8.80;3.53;;;;;;;;;;5080658;28;20073;-65
2021/12/10 13:09:30;;;;;;;9.13;3.70;;;;;;;;;;5082960;28;20052;-65
2021/12/10 13:12:18;;;;;;;5.88;3.03;;;;;;;;;;5084264;28;20127;-65
2021/12/10 13:14:57;;;;;;;9.20;3.90;;;;;;;;;;5105021;28;20046;-65
2021/12/10 13:17:33;;;;;;;7.13;3.50;;;;;;;;;;5105874;28;20045;-65
2021/12/10 13:20:02;;;;;;;8.13;3.45;;;;;;;;;;5084975;28;20055;-65
2021/12/10 13:22:30;;;;;;;7.68;3.58;;;;;;;;;;5102970;28;20420;-65
2021/12/10 13:25:00;;;;;;;6.65;3.28;;;;;;;;;;5100391;28;20059;-65
2021/12/10 13:27:26;;;;;;;9.27;4.00;;;;;;;;;;5086795;28;20035;-65
2021/12/10 13:29:52;;;;;;;6.55;3.40;;;;;;;;;;5103331;28;20039;-65
2021/12/10 13:32:18;;;;;;;9.38;4.45;;;;;;;;;;5103754;28;20051;-65
2021/12/10 13:34:45;;;;;;;7.75;3.58;;;;;;;;;;5104693;28;20047;-65
2021/12/10 13:37:14;;;;;;;6.60;3.83;;;;;;;;;;5106265;28;20140;-65
2021/12/10 13:39:42;;;;;;;9.75;4.10;;;;;;;;;;5083254;28;20040;-65
2021/12/10 13:42:09;;;;;;;9.27;3.95;;;;;;;;;;5105356;28;20116;-65
2021/12/10 13:44:45;;;;;;;9.48;4.10;;;;;;;;;;5107239;28;20032;-65
2021/12/10 13:47:22;;;;;;;7.53;4.25;;;;;;;;;;5096501;28;20068;-65
2021/12/10 13:49:59;;;;;;;6.53;3.67;;;;;;;;;;5103304;28;20047;-65
2021/12/10 13:52:43;;;;;;;7.88;3.90;;;;;;;;;;5103146;28;20085;-65
2021/12/10 13:55:14;;;;;;;7.72;3.97;;;;;;;;;;5104313;28;20040;-64
2021/12/10 13:57:41;;;;;;;7.72;3.80;;;;;;;;;;5103652;28;20082;-65
2021/12/10 14:00:08;;;;;;;9.25;4.03;;;;;;;;;;5107544;28;20446;-65
2021/12/10 14:02:36;;;;;;;8.93;3.95;;;;;;;;;;5105256;28;20034;-65
2021/12/10 14:05:23;;;;;;;10.95;4.85;;;;;;;;;;5106385;28;20032;-65
2021/12/10 14:07:59;;;;;;;10.68;4.03;;;;;;;;;;5101732;28;20044;-65
2021/12/10 14:10:32;;;;;;;10.50;4.20;;;;;;;;;;5108638;28;20061;-65
2021/12/10 14:13:00;;;;;;;10.00;4.15;;;;;;;;;;5109068;28;20064;-65
2021/12/10 14:15:27;;;;;;;9.23;4.68;;;;;;;;;;5101338;27;20446;-65
2021/12/10 14:17:59;;;;;;;7.72;4.60;;;;;;;;;;5106247;28;20429;-65
2021/12/10 14:20:25;;;;;;;7.72;4.13;;;;;;;;;;5110536;28;20035;-65
2021/12/10 14:22:54;;;;;;;8.10;3.85;;;;;;;;;;5108074;28;20435;-66
2021/12/10 14:25:26;;;;;;;7.55;4.13;;;;;;;;;;5101400;28;20125;-65
2021/12/10 14:28:00;;;;;;;8.15;4.47;;;;;;;;;;5101892;28;20035;-65
2021/12/10 14:30:30;;;;;;;7.55;4.45;;;;;;;;;;5095424;28;20044;-65
2021/12/10 14:32:59;;;;;;;10.35;4.60;;;;;;;;;;5104932;28;20093;-65
2021/12/10 14:35:25;;;;;;;8.52;4.05;;;;;;;;;;5109829;28;20039;-65
2021/12/10 14:37:54;;;;;;;10.52;4.18;;;;;;;;;;5096222;28;20107;-66
2021/12/10 14:40:23;;;;;;;9.20;4.50;;;;;;;;;;5108244;28;20093;-66
2021/12/10 14:43:07;;;;;;;7.40;4.10;;;;;;;;;;5102704;28;20035;-66
2021/12/10 14:45:33;;;;;;;11.25;4.50;;;;;;;;;;5095248;28;20036;-65